sensor_id;sensor_type;location;lat;lon;timestamp;P1;durP1;ratioP1;P2;durP2;ratioP2
79241;SDS011;68670;48.720;9.118;2024-03-23T00:53:02;6.90;;;2.90;;
79241;SDS011;68670;48.720;9.118;2024-03-23T00:55:28;6.32;;;2.50;;
79241;SDS011;68670;48.720;9.118;2024-03-23T00:57:53;4.07;;;2.10;;
79241;SDS011;68670;48.720;9.118;2024-03-23T01:00:18;6.23;;;2.27;;
79241;SDS011;68670;48.720;9.118;2024-03-23T01:02:44;3.93;;;1.80;;
79241;SDS011;68670;48.720;9.118;2024-03-23T01:05:09;6.93;;;2.60;;
79241;SDS011;68670;48.720;9.118;2024-03-23T01:07:37;4.07;;;2.25;;
79241;SDS011;68670;48.720;9.118;2024-03-23T01:10:02;3.17;;;1.83;;
79241;SDS011;68670;48.720;9.118;2024-03-23T01:12:27;3.65;;;1.77;;
79241;SDS011;68670;48.720;9.118;2024-03-23T01:14:53;3.17;;;1.70;;
79241;SDS011;68670;48.720;9.118;2024-03-23T01:17:18;2.97;;;1.70;;
79241;SDS011;68670;48.720;9.118;2024-03-23T01:19:43;5.93;;;1.60;;
79241;SDS011;68670;48.720;9.118;2024-03-23T01:22:11;3.43;;;1.70;;
79241;SDS011;68670;48.720;9.118;2024-03-23T01:24:36;3.40;;;1.70;;
79241;SDS011;68670;48.720;9.118;2024-03-23T01:27:02;3.80;;;1.93;;
79241;SDS011;68670;48.720;9.118;2024-03-23T01:29:27;3.60;;;1.80;;
79241;SDS011;68670;48.720;9.118;2024-03-23T01:31:52;3.40;;;1.80;;
79241;SDS011;68670;48.720;9.118;2024-03-23T01:34:20;3.22;;;1.60;;
79241;SDS011;68670;48.720;9.118;2024-03-23T01:36:45;4.72;;;2.03;;
79241;SDS011;68670;48.720;9.118;2024-03-23T01:39:13;3.38;;;1.70;;
79241;SDS011;68670;48.720;9.118;2024-03-23T01:41:39;4.15;;;1.80;;
79241;SDS011;68670;48.720;9.118;2024-03-23T01:44:07;5.82;;;1.83;;
79241;SDS011;68670;48.720;9.118;2024-03-23T01:46:33;3.45;;;1.75;;
79241;SDS011;68670;48.720;9.118;2024-03-23T01:49:00;3.22;;;2.08;;
79241;SDS011;68670;48.720;9.118;2024-03-23T01:51:26;4.80;;;1.92;;
79241;SDS011;68670;48.720;9.118;2024-03-23T01:53:52;4.32;;;1.85;;
79241;SDS011;68670;48.720;9.118;2024-03-23T01:56:18;3.38;;;1.73;;
79241;SDS011;68670;48.720;9.118;2024-03-23T01:58:44;3.40;;;1.50;;
79241;SDS011;68670;48.720;9.118;2024-03-23T02:01:11;2.22;;;1.65;;
79241;SDS011;68670;48.720;9.118;2024-03-23T02:03:37;4.38;;;2.00;;
79241;SDS011;68670;48.720;9.118;2024-03-23T02:06:07;3.08;;;1.65;;
79241;SDS011;68670;48.720;9.118;2024-03-23T02:08:33;5.30;;;1.83;;
79241;SDS011;68670;48.720;9.118;2024-03-23T02:10:59;4.45;;;1.92;;
79241;SDS011;68670;48.720;9.118;2024-03-23T02:13:24;4.47;;;2.20;;
79241;SDS011;68670;48.720;9.118;2024-03-23T02:15:50;7.53;;;1.87;;
79241;SDS011;68670;48.720;9.118;2024-03-23T02:18:15;3.93;;;1.93;;
79241;SDS011;68670;48.720;9.118;2024-03-23T02:20:40;3.27;;;1.90;;
79241;SDS011;68670;48.720;9.118;2024-03-23T02:23:09;3.20;;;1.85;;
79241;SDS011;68670;48.720;9.118;2024-03-23T02:25:38;3.88;;;1.90;;
79241;SDS011;68670;48.720;9.118;2024-03-23T02:28:03;4.28;;;1.92;;
79241;SDS011;68670;48.720;9.118;2024-03-23T02:30:29;3.33;;;1.77;;
79241;SDS011;68670;48.720;9.118;2024-03-23T02:32:55;3.08;;;1.70;;
79241;SDS011;68670;48.720;9.118;2024-03-23T02:35:20;3.43;;;1.93;;
79241;SDS011;68670;48.720;9.118;2024-03-23T02:37:46;3.73;;;1.83;;
79241;SDS011;68670;48.720;9.118;2024-03-23T02:40:11;3.20;;;1.55;;
79241;SDS011;68670;48.720;9.118;2024-03-23T02:42:37;2.88;;;1.60;;
79241;SDS011;68670;48.720;9.118;2024-03-23T02:45:07;3.70;;;1.90;;
79241;SDS011;68670;48.720;9.118;2024-03-23T02:47:33;3.53;;;1.60;;
79241;SDS011;68670;48.720;9.118;2024-03-23T02:50:01;3.08;;;1.70;;
79241;SDS011;68670;48.720;9.118;2024-03-23T02:52:26;4.68;;;2.08;;
79241;SDS011;68670;48.720;9.118;2024-03-23T02:54:51;4.90;;;1.63;;
79241;SDS011;68670;48.720;9.118;2024-03-23T02:57:19;2.95;;;1.50;;
79241;SDS011;68670;48.720;9.118;2024-03-23T02:59:44;2.67;;;1.40;;
79241;SDS011;68670;48.720;9.118;2024-03-23T03:02:11;3.83;;;1.60;;
79241;SDS011;68670;48.720;9.118;2024-03-23T03:04:39;3.08;;;1.60;;
79241;SDS011;68670;48.720;9.118;2024-03-23T03:07:07;3.08;;;1.65;;
79241;SDS011;68670;48.720;9.118;2024-03-23T03:09:35;3.20;;;1.70;;
79241;SDS011;68670;48.720;9.118;2024-03-23T03:12:01;3.35;;;1.55;;
79241;SDS011;68670;48.720;9.118;2024-03-23T03:14:30;3.63;;;1.55;;
79241;SDS011;68670;48.720;9.118;2024-03-23T03:16:55;2.97;;;1.60;;
79241;SDS011;68670;48.720;9.118;2024-03-23T03:19:21;3.60;;;1.90;;
79241;SDS011;68670;48.720;9.118;2024-03-23T03:21:46;2.67;;;1.50;;
79241;SDS011;68670;48.720;9.118;2024-03-23T03:24:12;4.82;;;1.70;;
79241;SDS011;68670;48.720;9.118;2024-03-23T03:26:38;3.80;;;1.73;;
79241;SDS011;68670;48.720;9.118;2024-03-23T03:29:05;3.15;;;1.70;;
79241;SDS011;68670;48.720;9.118;2024-03-23T03:31:32;3.30;;;1.65;;
79241;SDS011;68670;48.720;9.118;2024-03-23T03:33:58;3.13;;;1.60;;
79241;SDS011;68670;48.720;9.118;2024-03-23T03:36:28;3.78;;;1.90;;
79241;SDS011;68670;48.720;9.118;2024-03-23T03:38:53;3.05;;;1.73;;
79241;SDS011;68670;48.720;9.118;2024-03-23T03:41:21;4.93;;;1.88;;
79241;SDS011;68670;48.720;9.118;2024-03-23T03:43:49;3.45;;;1.90;;
79241;SDS011;68670;48.720;9.118;2024-03-23T03:46:17;5.57;;;1.57;;
79241;SDS011;68670;48.720;9.118;2024-03-23T03:48:47;3.33;;;1.85;;
79241;SDS011;68670;48.720;9.118;2024-03-23T03:51:13;2.90;;;1.67;;
79241;SDS011;68670;48.720;9.118;2024-03-23T03:53:41;2.97;;;1.80;;
79241;SDS011;68670;48.720;9.118;2024-03-23T03:56:09;3.30;;;1.83;;
79241;SDS011;68670;48.720;9.118;2024-03-23T03:58:34;3.53;;;1.87;;
79241;SDS011;68670;48.720;9.118;2024-03-23T04:00:59;3.67;;;1.70;;
79241;SDS011;68670;48.720;9.118;2024-03-23T04:03:24;4.33;;;2.03;;
79241;SDS011;68670;48.720;9.118;2024-03-23T04:05:53;4.25;;;2.13;;
79241;SDS011;68670;48.720;9.118;2024-03-23T04:08:19;4.18;;;1.90;;
79241;SDS011;68670;48.720;9.118;2024-03-23T04:10:45;6.05;;;2.00;;
79241;SDS011;68670;48.720;9.118;2024-03-23T04:13:10;3.92;;;1.92;;
79241;SDS011;68670;48.720;9.118;2024-03-23T04:15:36;2.83;;;1.63;;
79241;SDS011;68670;48.720;9.118;2024-03-23T04:18:04;3.50;;;2.25;;
79241;SDS011;68670;48.720;9.118;2024-03-23T04:20:33;3.10;;;1.70;;
79241;SDS011;68670;48.720;9.118;2024-03-23T04:22:58;3.30;;;1.97;;
79241;SDS011;68670;48.720;9.118;2024-03-23T04:25:24;4.50;;;2.10;;
79241;SDS011;68670;48.720;9.118;2024-03-23T04:27:49;5.87;;;2.40;;
79241;SDS011;68670;48.720;9.118;2024-03-23T04:30:17;6.68;;;2.17;;
79241;SDS011;68670;48.720;9.118;2024-03-23T04:32:42;5.90;;;2.88;;
79241;SDS011;68670;48.720;9.118;2024-03-23T04:35:11;6.78;;;2.42;;
79241;SDS011;68670;48.720;9.118;2024-03-23T04:37:36;7.07;;;3.10;;
79241;SDS011;68670;48.720;9.118;2024-03-23T04:40:05;8.25;;;2.75;;
79241;SDS011;68670;48.720;9.118;2024-03-23T04:42:32;4.45;;;2.20;;
79241;SDS011;68670;48.720;9.118;2024-03-23T04:44:58;3.63;;;1.90;;
79241;SDS011;68670;48.720;9.118;2024-03-23T04:47:23;5.13;;;1.77;;
79241;SDS011;68670;48.720;9.118;2024-03-23T04:49:49;4.55;;;2.05;;
79241;SDS011;68670;48.720;9.118;2024-03-23T04:52:14;4.53;;;2.10;;
79241;SDS011;68670;48.720;9.118;2024-03-23T04:54:41;3.28;;;1.83;;
79241;SDS011;68670;48.720;9.118;2024-03-23T04:57:10;3.92;;;2.25;;
79241;SDS011;68670;48.720;9.118;2024-03-23T04:59:38;6.35;;;2.22;;
79241;SDS011;68670;48.720;9.118;2024-03-23T05:02:03;6.80;;;2.90;;
79241;SDS011;68670;48.720;9.118;2024-03-23T05:04:29;6.68;;;3.13;;
79241;SDS011;68670;48.720;9.118;2024-03-23T05:06:54;8.63;;;4.05;;
79241;SDS011;68670;48.720;9.118;2024-03-23T05:09:19;9.83;;;4.53;;
79241;SDS011;68670;48.720;9.118;2024-03-23T05:11:49;10.85;;;4.60;;
79241;SDS011;68670;48.720;9.118;2024-03-23T05:14:17;9.85;;;4.93;;
79241;SDS011;68670;48.720;9.118;2024-03-23T05:16:42;13.43;;;5.43;;
79241;SDS011;68670;48.720;9.118;2024-03-23T05:19:07;11.50;;;5.23;;
79241;SDS011;68670;48.720;9.118;2024-03-23T05:21:33;12.52;;;5.80;;
79241;SDS011;68670;48.720;9.118;2024-03-23T05:23:58;12.80;;;5.68;;
79241;SDS011;68670;48.720;9.118;2024-03-23T05:26:26;13.07;;;5.38;;
79241;SDS011;68670;48.720;9.118;2024-03-23T05:28:53;13.40;;;6.57;;
79241;SDS011;68670;48.720;9.118;2024-03-23T05:31:28;14.65;;;5.70;;
79241;SDS011;68670;48.720;9.118;2024-03-23T05:33:55;15.35;;;5.85;;
79241;SDS011;68670;48.720;9.118;2024-03-23T05:36:22;13.50;;;6.00;;
79241;SDS011;68670;48.720;9.118;2024-03-23T05:38:51;14.85;;;6.30;;
79241;SDS011;68670;48.720;9.118;2024-03-23T05:41:16;15.27;;;5.47;;
79241;SDS011;68670;48.720;9.118;2024-03-23T05:43:41;15.10;;;5.97;;
79241;SDS011;68670;48.720;9.118;2024-03-23T05:46:07;12.43;;;5.73;;
79241;SDS011;68670;48.720;9.118;2024-03-23T05:48:35;11.02;;;4.93;;
79241;SDS011;68670;48.720;9.118;2024-03-23T05:51:01;13.77;;;5.90;;
79241;SDS011;68670;48.720;9.118;2024-03-23T05:53:27;11.45;;;4.60;;
79241;SDS011;68670;48.720;9.118;2024-03-23T05:55:59;13.30;;;4.95;;
79241;SDS011;68670;48.720;9.118;2024-03-23T05:58:26;10.27;;;3.67;;
79241;SDS011;68670;48.720;9.118;2024-03-23T06:01:00;7.80;;;3.10;;
79241;SDS011;68670;48.720;9.118;2024-03-23T06:03:29;6.93;;;2.78;;
79241;SDS011;68670;48.720;9.118;2024-03-23T06:05:57;5.15;;;2.42;;
79241;SDS011;68670;48.720;9.118;2024-03-23T06:08:25;6.07;;;1.85;;
79241;SDS011;68670;48.720;9.118;2024-03-23T06:10:52;4.32;;;1.98;;
79241;SDS011;68670;48.720;9.118;2024-03-23T06:13:18;5.75;;;2.35;;
79241;SDS011;68670;48.720;9.118;2024-03-23T06:15:43;3.33;;;1.52;;
79241;SDS011;68670;48.720;9.118;2024-03-23T06:18:10;2.42;;;0.90;;
79241;SDS011;68670;48.720;9.118;2024-03-23T06:20:36;5.75;;;1.08;;
79241;SDS011;68670;48.720;9.118;2024-03-23T06:23:02;2.23;;;1.10;;
79241;SDS011;68670;48.720;9.118;2024-03-23T06:25:30;1.92;;;0.90;;
79241;SDS011;68670;48.720;9.118;2024-03-23T06:27:57;2.58;;;0.80;;
79241;SDS011;68670;48.720;9.118;2024-03-23T06:30:26;2.03;;;0.88;;
79241;SDS011;68670;48.720;9.118;2024-03-23T06:32:54;1.88;;;1.00;;
79241;SDS011;68670;48.720;9.118;2024-03-23T06:35:19;1.75;;;0.90;;
79241;SDS011;68670;48.720;9.118;2024-03-23T06:37:45;3.47;;;0.80;;
79241;SDS011;68670;48.720;9.118;2024-03-23T06:40:10;1.33;;;0.80;;
79241;SDS011;68670;48.720;9.118;2024-03-23T06:42:36;3.40;;;0.80;;
79241;SDS011;68670;48.720;9.118;2024-03-23T06:45:01;1.58;;;0.60;;
79241;SDS011;68670;48.720;9.118;2024-03-23T06:47:32;3.25;;;1.00;;
79241;SDS011;68670;48.720;9.118;2024-03-23T06:52:29;1.45;;;0.40;;
79241;SDS011;68670;48.720;9.118;2024-03-23T06:54:57;0.65;;;0.40;;
79241;SDS011;68670;48.720;9.118;2024-03-23T06:57:25;1.58;;;0.80;;
79241;SDS011;68670;48.720;9.118;2024-03-23T06:59:50;0.80;;;0.40;;
79241;SDS011;68670;48.720;9.118;2024-03-23T07:02:18;1.67;;;0.55;;
79241;SDS011;68670;48.720;9.118;2024-03-23T07:04:43;1.00;;;0.70;;
79241;SDS011;68670;48.720;9.118;2024-03-23T07:07:09;0.50;;;0.32;;
79241;SDS011;68670;48.720;9.118;2024-03-23T07:09:36;0.63;;;0.40;;
79241;SDS011;68670;48.720;9.118;2024-03-23T07:12:02;1.25;;;0.38;;
79241;SDS011;68670;48.720;9.118;2024-03-23T07:14:30;1.85;;;0.40;;
79241;SDS011;68670;48.720;9.118;2024-03-23T07:16:56;2.10;;;0.40;;
79241;SDS011;68670;48.720;9.118;2024-03-23T07:19:23;1.10;;;0.40;;
79241;SDS011;68670;48.720;9.118;2024-03-23T07:21:55;1.50;;;0.60;;
79241;SDS011;68670;48.720;9.118;2024-03-23T07:24:21;0.32;;;0.20;;
79241;SDS011;68670;48.720;9.118;2024-03-23T07:26:46;0.40;;;0.20;;
79241;SDS011;68670;48.720;9.118;2024-03-23T07:29:12;0.20;;;0.10;;
79241;SDS011;68670;48.720;9.118;2024-03-23T07:31:37;0.25;;;0.15;;
79241;SDS011;68670;48.720;9.118;2024-03-23T07:34:06;0.32;;;0.28;;
79241;SDS011;68670;48.720;9.118;2024-03-23T07:36:34;0.20;;;0.10;;
79241;SDS011;68670;48.720;9.118;2024-03-23T07:38:59;0.30;;;0.17;;
79241;SDS011;68670;48.720;9.118;2024-03-23T07:41:27;0.63;;;0.10;;
79241;SDS011;68670;48.720;9.118;2024-03-23T07:43:53;0.30;;;0.10;;
79241;SDS011;68670;48.720;9.118;2024-03-23T07:46:18;0.28;;;0.17;;
79241;SDS011;68670;48.720;9.118;2024-03-23T07:48:46;0.20;;;0.15;;
79241;SDS011;68670;48.720;9.118;2024-03-23T07:51:21;0.10;;;0.10;;
79241;SDS011;68670;48.720;9.118;2024-03-23T07:53:47;0.45;;;0.20;;
79241;SDS011;68670;48.720;9.118;2024-03-23T07:56:15;0.22;;;0.20;;
79241;SDS011;68670;48.720;9.118;2024-03-23T07:58:42;0.10;;;0.10;;
79241;SDS011;68670;48.720;9.118;2024-03-23T08:01:09;0.23;;;0.10;;
79241;SDS011;68670;48.720;9.118;2024-03-23T08:03:36;0.85;;;0.20;;
79241;SDS011;68670;48.720;9.118;2024-03-23T08:06:08;0.20;;;0.10;;
79241;SDS011;68670;48.720;9.118;2024-03-23T08:08:33;0.35;;;0.10;;
79241;SDS011;68670;48.720;9.118;2024-03-23T08:10:59;0.30;;;0.30;;
79241;SDS011;68670;48.720;9.118;2024-03-23T08:13:25;0.40;;;0.20;;
79241;SDS011;68670;48.720;9.118;2024-03-23T08:15:50;1.50;;;0.50;;
79241;SDS011;68670;48.720;9.118;2024-03-23T08:18:15;2.23;;;0.27;;
79241;SDS011;68670;48.720;9.118;2024-03-23T08:20:41;0.60;;;0.30;;
79241;SDS011;68670;48.720;9.118;2024-03-23T08:23:07;0.75;;;0.30;;
79241;SDS011;68670;48.720;9.118;2024-03-23T08:25:33;0.82;;;0.40;;
79241;SDS011;68670;48.720;9.118;2024-03-23T08:28:00;1.98;;;0.50;;
79241;SDS011;68670;48.720;9.118;2024-03-23T08:30:28;3.17;;;0.70;;
79241;SDS011;68670;48.720;9.118;2024-03-23T08:32:54;1.38;;;0.50;;
79241;SDS011;68670;48.720;9.118;2024-03-23T08:35:22;2.25;;;0.70;;
79241;SDS011;68670;48.720;9.118;2024-03-23T08:37:49;2.08;;;0.90;;
79241;SDS011;68670;48.720;9.118;2024-03-23T08:40:15;1.60;;;0.70;;
79241;SDS011;68670;48.720;9.118;2024-03-23T08:42:40;0.98;;;0.55;;
79241;SDS011;68670;48.720;9.118;2024-03-23T08:45:05;1.00;;;0.53;;
79241;SDS011;68670;48.720;9.118;2024-03-23T08:47:36;1.60;;;0.57;;
79241;SDS011;68670;48.720;9.118;2024-03-23T08:50:01;2.08;;;0.80;;
79241;SDS011;68670;48.720;9.118;2024-03-23T08:52:27;2.17;;;1.10;;
79241;SDS011;68670;48.720;9.118;2024-03-23T08:54:54;2.00;;;0.80;;
79241;SDS011;68670;48.720;9.118;2024-03-23T08:57:20;0.73;;;0.60;;
79241;SDS011;68670;48.720;9.118;2024-03-23T08:59:46;2.63;;;1.00;;
79241;SDS011;68670;48.720;9.118;2024-03-23T09:02:11;2.80;;;1.00;;
79241;SDS011;68670;48.720;9.118;2024-03-23T09:04:37;1.47;;;0.90;;
79241;SDS011;68670;48.720;9.118;2024-03-23T09:07:02;2.07;;;0.90;;
79241;SDS011;68670;48.720;9.118;2024-03-23T09:09:27;2.58;;;0.90;;
79241;SDS011;68670;48.720;9.118;2024-03-23T09:11:55;2.80;;;0.77;;
79241;SDS011;68670;48.720;9.118;2024-03-23T09:14:23;2.53;;;1.20;;
79241;SDS011;68670;48.720;9.118;2024-03-23T09:16:51;3.00;;;1.23;;
79241;SDS011;68670;48.720;9.118;2024-03-23T09:19:20;2.67;;;1.45;;
79241;SDS011;68670;48.720;9.118;2024-03-23T09:21:45;3.50;;;0.90;;
79241;SDS011;68670;48.720;9.118;2024-03-23T09:24:12;4.25;;;1.27;;
79241;SDS011;68670;48.720;9.118;2024-03-23T09:26:38;5.93;;;2.03;;
79241;SDS011;68670;48.720;9.118;2024-03-23T09:29:03;3.80;;;1.50;;
79241;SDS011;68670;48.720;9.118;2024-03-23T09:31:28;7.30;;;1.90;;
79241;SDS011;68670;48.720;9.118;2024-03-23T09:33:54;3.90;;;1.50;;
79241;SDS011;68670;48.720;9.118;2024-03-23T09:36:20;2.97;;;1.52;;
79241;SDS011;68670;48.720;9.118;2024-03-23T09:38:45;5.03;;;1.73;;
79241;SDS011;68670;48.720;9.118;2024-03-23T09:41:10;5.23;;;1.50;;
79241;SDS011;68670;48.720;9.118;2024-03-23T09:43:36;6.07;;;1.70;;
79241;SDS011;68670;48.720;9.118;2024-03-23T09:46:02;5.75;;;1.80;;
79241;SDS011;68670;48.720;9.118;2024-03-23T09:48:28;5.00;;;1.83;;
79241;SDS011;68670;48.720;9.118;2024-03-23T09:50:53;6.43;;;1.70;;
79241;SDS011;68670;48.720;9.118;2024-03-23T09:53:19;6.15;;;1.70;;
79241;SDS011;68670;48.720;9.118;2024-03-23T09:55:47;4.75;;;1.70;;
79241;SDS011;68670;48.720;9.118;2024-03-23T09:58:14;8.35;;;2.55;;
79241;SDS011;68670;48.720;9.118;2024-03-23T10:00:41;3.15;;;1.83;;
79241;SDS011;68670;48.720;9.118;2024-03-23T10:03:06;5.45;;;1.80;;
79241;SDS011;68670;48.720;9.118;2024-03-23T10:05:36;6.65;;;2.25;;
79241;SDS011;68670;48.720;9.118;2024-03-23T10:10:38;6.13;;;2.00;;
79241;SDS011;68670;48.720;9.118;2024-03-23T10:13:03;6.23;;;2.03;;
79241;SDS011;68670;48.720;9.118;2024-03-23T10:15:29;4.15;;;1.70;;
79241;SDS011;68670;48.720;9.118;2024-03-23T10:17:56;5.97;;;2.03;;
79241;SDS011;68670;48.720;9.118;2024-03-23T10:20:22;6.47;;;2.00;;
79241;SDS011;68670;48.720;9.118;2024-03-23T10:22:51;8.85;;;2.10;;
79241;SDS011;68670;48.720;9.118;2024-03-23T10:25:17;7.57;;;1.92;;
79241;SDS011;68670;48.720;9.118;2024-03-23T10:27:43;6.10;;;1.60;;
79241;SDS011;68670;48.720;9.118;2024-03-23T10:35:18;5.38;;;1.90;;
79241;SDS011;68670;48.720;9.118;2024-03-23T10:37:46;3.40;;;1.65;;
79241;SDS011;68670;48.720;9.118;2024-03-23T10:40:14;3.90;;;1.58;;
79241;SDS011;68670;48.720;9.118;2024-03-23T10:42:40;5.00;;;1.67;;
79241;SDS011;68670;48.720;9.118;2024-03-23T10:45:08;5.80;;;2.08;;
79241;SDS011;68670;48.720;9.118;2024-03-23T10:47:34;6.30;;;1.60;;
79241;SDS011;68670;48.720;9.118;2024-03-23T10:50:01;6.07;;;2.00;;
79241;SDS011;68670;48.720;9.118;2024-03-23T10:52:28;9.50;;;2.33;;
79241;SDS011;68670;48.720;9.118;2024-03-23T10:54:56;3.85;;;1.70;;
79241;SDS011;68670;48.720;9.118;2024-03-23T10:57:23;6.85;;;1.77;;
79241;SDS011;68670;48.720;9.118;2024-03-23T10:59:57;4.60;;;1.85;;
79241;SDS011;68670;48.720;9.118;2024-03-23T11:02:23;6.38;;;1.55;;
79241;SDS011;68670;48.720;9.118;2024-03-23T11:04:51;3.55;;;1.30;;
79241;SDS011;68670;48.720;9.118;2024-03-23T11:09:51;1.40;;;0.80;;
79241;SDS011;68670;48.720;9.118;2024-03-23T11:17:26;3.55;;;1.05;;
79241;SDS011;68670;48.720;9.118;2024-03-23T11:19:53;3.95;;;1.38;;
79241;SDS011;68670;48.720;9.118;2024-03-23T11:22:47;13.32;;;1.20;;
79241;SDS011;68670;48.720;9.118;2024-03-23T11:25:15;5.13;;;1.30;;
79241;SDS011;68670;48.720;9.118;2024-03-23T11:27:45;3.75;;;1.38;;
79241;SDS011;68670;48.720;9.118;2024-03-23T11:32:36;1.80;;;0.93;;
79241;SDS011;68670;48.720;9.118;2024-03-23T11:35:04;3.00;;;1.10;;
79241;SDS011;68670;48.720;9.118;2024-03-23T11:37:30;3.60;;;1.00;;
79241;SDS011;68670;48.720;9.118;2024-03-23T11:39:58;3.90;;;1.00;;
79241;SDS011;68670;48.720;9.118;2024-03-23T11:42:23;4.27;;;1.10;;
79241;SDS011;68670;48.720;9.118;2024-03-23T11:44:54;3.03;;;1.13;;
79241;SDS011;68670;48.720;9.118;2024-03-23T11:47:19;4.15;;;1.08;;
79241;SDS011;68670;48.720;9.118;2024-03-23T11:49:45;3.13;;;1.03;;
79241;SDS011;68670;48.720;9.118;2024-03-23T11:52:13;2.53;;;1.10;;
79241;SDS011;68670;48.720;9.118;2024-03-23T11:54:40;4.18;;;0.90;;
79241;SDS011;68670;48.720;9.118;2024-03-23T11:57:07;1.93;;;0.70;;
79241;SDS011;68670;48.720;9.118;2024-03-23T11:59:39;2.10;;;0.90;;
79241;SDS011;68670;48.720;9.118;2024-03-23T12:07:15;5.03;;;0.85;;
79241;SDS011;68670;48.720;9.118;2024-03-23T12:09:46;3.08;;;0.80;;
79241;SDS011;68670;48.720;9.118;2024-03-23T12:12:31;3.38;;;0.63;;
79241;SDS011;68670;48.720;9.118;2024-03-23T12:15:06;2.35;;;0.60;;
79241;SDS011;68670;48.720;9.118;2024-03-23T12:17:33;4.00;;;0.77;;
79241;SDS011;68670;48.720;9.118;2024-03-23T12:19:59;2.78;;;0.90;;
79241;SDS011;68670;48.720;9.118;2024-03-23T12:22:25;9.60;;;1.13;;
79241;SDS011;68670;48.720;9.118;2024-03-23T12:24:52;4.93;;;0.85;;
79241;SDS011;68670;48.720;9.118;2024-03-23T12:27:17;3.47;;;0.98;;
79241;SDS011;68670;48.720;9.118;2024-03-23T12:29:45;2.30;;;0.80;;
79241;SDS011;68670;48.720;9.118;2024-03-23T12:32:13;6.38;;;1.27;;
79241;SDS011;68670;48.720;9.118;2024-03-23T12:34:39;4.78;;;0.95;;
79241;SDS011;68670;48.720;9.118;2024-03-23T12:37:04;2.75;;;1.20;;
79241;SDS011;68670;48.720;9.118;2024-03-23T12:39:34;3.03;;;0.80;;
79241;SDS011;68670;48.720;9.118;2024-03-23T12:42:02;3.00;;;0.82;;
79241;SDS011;68670;48.720;9.118;2024-03-23T12:44:28;4.57;;;1.02;;
79241;SDS011;68670;48.720;9.118;2024-03-23T12:46:56;8.60;;;1.30;;
79241;SDS011;68670;48.720;9.118;2024-03-23T12:49:21;1.98;;;0.85;;
79241;SDS011;68670;48.720;9.118;2024-03-23T12:51:53;6.00;;;1.20;;
79241;SDS011;68670;48.720;9.118;2024-03-23T12:54:23;2.75;;;1.27;;
79241;SDS011;68670;48.720;9.118;2024-03-23T12:56:48;4.97;;;1.60;;
79241;SDS011;68670;48.720;9.118;2024-03-23T12:59:16;6.43;;;1.13;;
79241;SDS011;68670;48.720;9.118;2024-03-23T13:01:45;8.95;;;1.50;;
79241;SDS011;68670;48.720;9.118;2024-03-23T13:04:10;5.30;;;1.10;;
79241;SDS011;68670;48.720;9.118;2024-03-23T13:06:35;6.82;;;1.52;;
79241;SDS011;68670;48.720;9.118;2024-03-23T13:09:01;4.00;;;1.30;;
79241;SDS011;68670;48.720;9.118;2024-03-23T13:11:28;6.05;;;1.33;;
79241;SDS011;68670;48.720;9.118;2024-03-23T13:13:53;3.53;;;1.52;;
79241;SDS011;68670;48.720;9.118;2024-03-23T13:16:18;4.33;;;1.20;;
79241;SDS011;68670;48.720;9.118;2024-03-23T13:18:44;3.83;;;1.30;;
79241;SDS011;68670;48.720;9.118;2024-03-23T13:21:09;4.07;;;1.10;;
79241;SDS011;68670;48.720;9.118;2024-03-23T13:23:34;1.80;;;0.67;;
79241;SDS011;68670;48.720;9.118;2024-03-23T13:26:00;2.88;;;0.63;;
79241;SDS011;68670;48.720;9.118;2024-03-23T13:28:28;4.20;;;1.00;;
79241;SDS011;68670;48.720;9.118;2024-03-23T13:30:54;2.27;;;0.27;;
79241;SDS011;68670;48.720;9.118;2024-03-23T13:33:24;4.50;;;1.20;;
79241;SDS011;68670;48.720;9.118;2024-03-23T13:35:50;2.90;;;0.73;;
79241;SDS011;68670;48.720;9.118;2024-03-23T13:38:17;5.07;;;0.60;;
79241;SDS011;68670;48.720;9.118;2024-03-23T13:40:50;0.93;;;0.45;;
79241;SDS011;68670;48.720;9.118;2024-03-23T13:43:18;1.63;;;0.50;;
79241;SDS011;68670;48.720;9.118;2024-03-23T13:45:44;6.50;;;2.45;;
79241;SDS011;68670;48.720;9.118;2024-03-23T13:48:14;1.98;;;0.63;;
79241;SDS011;68670;48.720;9.118;2024-03-23T13:50:40;3.25;;;0.93;;
79241;SDS011;68670;48.720;9.118;2024-03-23T13:53:08;1.10;;;0.38;;
79241;SDS011;68670;48.720;9.118;2024-03-23T13:55:33;2.92;;;1.00;;
79241;SDS011;68670;48.720;9.118;2024-03-23T13:58:02;2.70;;;0.68;;
79241;SDS011;68670;48.720;9.118;2024-03-23T14:00:29;4.00;;;1.20;;
79241;SDS011;68670;48.720;9.118;2024-03-23T14:02:57;1.88;;;0.77;;
79241;SDS011;68670;48.720;9.118;2024-03-23T14:05:22;3.70;;;0.70;;
79241;SDS011;68670;48.720;9.118;2024-03-23T14:07:48;3.88;;;0.70;;
79241;SDS011;68670;48.720;9.118;2024-03-23T14:10:14;1.73;;;0.82;;
79241;SDS011;68670;48.720;9.118;2024-03-23T14:12:39;2.80;;;0.70;;
79241;SDS011;68670;48.720;9.118;2024-03-23T14:15:07;2.95;;;0.70;;
79241;SDS011;68670;48.720;9.118;2024-03-23T14:17:33;1.52;;;0.73;;
79241;SDS011;68670;48.720;9.118;2024-03-23T14:19:58;1.43;;;0.77;;
79241;SDS011;68670;48.720;9.118;2024-03-23T14:22:26;4.25;;;0.70;;
79241;SDS011;68670;48.720;9.118;2024-03-23T14:24:57;2.80;;;0.60;;
79241;SDS011;68670;48.720;9.118;2024-03-23T14:27:24;4.95;;;0.57;;
79241;SDS011;68670;48.720;9.118;2024-03-23T14:29:50;1.37;;;0.57;;
79241;SDS011;68670;48.720;9.118;2024-03-23T14:32:15;1.08;;;0.52;;
79241;SDS011;68670;48.720;9.118;2024-03-23T14:34:43;2.70;;;0.60;;
79241;SDS011;68670;48.720;9.118;2024-03-23T14:37:08;3.65;;;0.65;;
79241;SDS011;68670;48.720;9.118;2024-03-23T14:39:40;1.45;;;0.50;;
79241;SDS011;68670;48.720;9.118;2024-03-23T14:42:06;7.30;;;2.28;;
79241;SDS011;68670;48.720;9.118;2024-03-23T14:44:33;1.38;;;0.70;;
79241;SDS011;68670;48.720;9.118;2024-03-23T14:47:03;2.90;;;0.57;;
79241;SDS011;68670;48.720;9.118;2024-03-23T14:49:28;1.50;;;0.60;;
79241;SDS011;68670;48.720;9.118;2024-03-23T14:51:54;2.17;;;0.65;;
79241;SDS011;68670;48.720;9.118;2024-03-23T14:54:21;2.55;;;0.52;;
79241;SDS011;68670;48.720;9.118;2024-03-23T14:56:49;2.97;;;0.60;;
79241;SDS011;68670;48.720;9.118;2024-03-23T14:59:17;2.10;;;0.70;;
79241;SDS011;68670;48.720;9.118;2024-03-23T15:04:10;2.17;;;0.47;;
79241;SDS011;68670;48.720;9.118;2024-03-23T15:06:37;2.15;;;0.68;;
79241;SDS011;68670;48.720;9.118;2024-03-23T15:09:05;2.53;;;1.00;;
79241;SDS011;68670;48.720;9.118;2024-03-23T15:11:36;4.00;;;0.95;;
79241;SDS011;68670;48.720;9.118;2024-03-23T15:14:01;1.37;;;0.60;;
79241;SDS011;68670;48.720;9.118;2024-03-23T15:16:29;1.88;;;0.50;;
79241;SDS011;68670;48.720;9.118;2024-03-23T15:18:54;3.67;;;0.80;;
79241;SDS011;68670;48.720;9.118;2024-03-23T15:21:19;3.30;;;0.65;;
79241;SDS011;68670;48.720;9.118;2024-03-23T15:23:46;2.30;;;0.60;;
79241;SDS011;68670;48.720;9.118;2024-03-23T15:26:12;3.95;;;1.13;;
79241;SDS011;68670;48.720;9.118;2024-03-23T15:28:37;1.30;;;0.60;;
79241;SDS011;68670;48.720;9.118;2024-03-23T15:31:04;6.15;;;0.70;;
79241;SDS011;68670;48.720;9.118;2024-03-23T15:33:29;3.30;;;0.50;;
79241;SDS011;68670;48.720;9.118;2024-03-23T15:35:58;1.23;;;0.60;;
79241;SDS011;68670;48.720;9.118;2024-03-23T15:38:31;3.33;;;0.57;;
79241;SDS011;68670;48.720;9.118;2024-03-23T15:40:57;1.00;;;0.57;;
79241;SDS011;68670;48.720;9.118;2024-03-23T15:43:22;2.85;;;0.65;;
79241;SDS011;68670;48.720;9.118;2024-03-23T15:45:53;2.75;;;0.55;;
79241;SDS011;68670;48.720;9.118;2024-03-23T15:48:25;1.08;;;0.60;;
79241;SDS011;68670;48.720;9.118;2024-03-23T15:50:54;2.55;;;0.65;;
79241;SDS011;68670;48.720;9.118;2024-03-23T15:53:22;1.42;;;0.43;;
79241;SDS011;68670;48.720;9.118;2024-03-23T15:55:54;2.97;;;0.47;;
79241;SDS011;68670;48.720;9.118;2024-03-23T15:58:23;2.25;;;0.60;;
79241;SDS011;68670;48.720;9.118;2024-03-23T16:01:02;1.83;;;0.57;;
79241;SDS011;68670;48.720;9.118;2024-03-23T16:03:29;0.75;;;0.50;;
79241;SDS011;68670;48.720;9.118;2024-03-23T16:05:57;1.60;;;0.60;;